Merriam, Kansas
Current Conditions -  °F | °C
As of 2:54 AM on Sunday 26 Oct 2014 (Local Time) from KMKC Reporting Station
Clear Clear  
Wind Chill: 60°   Ceiling: Unl
Heat Index: 60°   Visibility: 10mi
Dew Point: 51°   Wind: 7mph
Humidity: 72%   Direction: 80°E
Pressure: 29.98"   Gusts: NA
Location:  38.993°N, 94.6774°W
Report Text: KMKC 260754Z 08006KT 10SM CLR 16/11 A2998 RMK AO2 SLP145 T01560106
Loading
Personal Weather Stations






























Interactive Weather Map
Tropical Storm Tracking
New forecast layout! Learn more

10-Day Weather Forecast

Advertisements
Track Severe Weather on mobile